createdAt,value
2023-08-05T00:02:03.372Z,8.80
2023-08-05T00:04:30.566Z,9.93
2023-08-05T00:06:57.726Z,13.48
2023-08-05T00:09:24.874Z,10.38
2023-08-05T00:11:52.081Z,8.98
2023-08-05T00:14:19.239Z,6.70
2023-08-05T00:16:46.512Z,9.35
2023-08-05T00:19:13.762Z,10.38
2023-08-05T00:21:40.968Z,12.75
2023-08-05T00:24:08.234Z,8.80
2023-08-05T00:26:35.506Z,9.75
2023-08-05T00:29:02.660Z,5.38
2023-08-05T00:31:29.925Z,6.05
2023-08-05T00:33:57.112Z,9.73
2023-08-05T00:36:24.270Z,8.85
2023-08-05T00:38:51.487Z,12.43
2023-08-05T00:41:19.024Z,6.32
2023-08-05T00:43:46.351Z,12.20
2023-08-05T00:46:14.024Z,9.20
2023-08-05T00:48:41.479Z,8.80
2023-08-05T00:51:09.198Z,7.15
2023-08-05T00:53:36.533Z,7.95
2023-08-05T00:56:03.678Z,6.93
2023-08-05T00:58:32.862Z,8.27
2023-08-05T01:01:00.312Z,12.77
2023-08-05T01:03:27.610Z,8.20
2023-08-05T01:05:55.877Z,8.90
2023-08-05T01:08:23.876Z,12.07
2023-08-05T01:10:51.625Z,11.50
2023-08-05T01:13:18.904Z,9.07
2023-08-05T01:15:46.395Z,13.75
2023-08-05T01:18:14.446Z,9.48
2023-08-05T01:20:46.346Z,11.55
2023-08-05T01:23:30.003Z,9.45
2023-08-05T01:25:57.222Z,8.48
2023-08-05T01:28:24.595Z,8.73
2023-08-05T01:30:52.057Z,7.53
2023-08-05T01:33:20.050Z,7.57
2023-08-05T01:35:50.268Z,10.40
2023-08-05T01:38:17.532Z,10.95
2023-08-05T01:40:45.924Z,10.70
2023-08-05T01:43:13.125Z,9.50
2023-08-05T01:45:40.755Z,12.65
2023-08-05T01:48:08.086Z,10.00
2023-08-05T01:50:37.114Z,11.10
2023-08-05T01:53:04.358Z,11.32
2023-08-05T01:55:31.535Z,11.30
2023-08-05T01:57:58.774Z,8.15
2023-08-05T02:00:25.958Z,8.25
2023-08-05T02:02:53.278Z,10.90
2023-08-05T02:05:20.515Z,9.32
2023-08-05T02:07:47.712Z,8.35
2023-08-05T02:10:14.995Z,7.38
2023-08-05T02:12:45.862Z,8.27
2023-08-05T02:15:13.010Z,9.70
2023-08-05T02:17:40.291Z,14.38
2023-08-05T02:20:08.938Z,6.22
2023-08-05T02:22:36.095Z,7.90
2023-08-05T02:25:03.289Z,9.65
2023-08-05T02:27:30.473Z,10.18
2023-08-05T02:29:57.724Z,7.53
2023-08-05T02:32:24.989Z,10.02
2023-08-05T02:34:52.187Z,12.05
2023-08-05T02:37:19.404Z,7.85
2023-08-05T02:39:46.716Z,13.30
2023-08-05T02:42:13.890Z,8.57
2023-08-05T02:44:41.099Z,11.05
2023-08-05T02:47:08.244Z,12.00
2023-08-05T02:49:35.566Z,13.00
2023-08-05T02:52:02.832Z,10.07
2023-08-05T02:54:30.114Z,16.02
2023-08-05T02:57:00.740Z,11.07
2023-08-05T02:59:31.916Z,9.98
2023-08-05T03:01:59.196Z,8.50
2023-08-05T03:04:26.362Z,14.48
2023-08-05T03:06:53.734Z,11.88
2023-08-05T03:09:20.992Z,11.35
2023-08-05T03:11:49.006Z,12.30
2023-08-05T03:14:16.172Z,10.75
2023-08-05T03:16:43.707Z,10.32
2023-08-05T03:19:10.947Z,11.95
2023-08-05T03:21:41.128Z,13.73
2023-08-05T03:24:08.315Z,12.45
2023-08-05T03:26:39.185Z,9.35
2023-08-05T03:29:08.897Z,8.60
2023-08-05T03:31:36.179Z,11.45
2023-08-05T03:34:06.361Z,8.95
2023-08-05T03:36:35.806Z,9.15
2023-08-05T03:39:02.995Z,13.88
2023-08-05T03:41:30.213Z,10.48
2023-08-05T03:43:57.578Z,8.18
2023-08-05T03:46:25.221Z,11.80
2023-08-05T03:48:56.107Z,8.35
2023-08-05T03:51:23.297Z,11.65
2023-08-05T03:53:50.812Z,8.38
2023-08-05T03:56:23.850Z,10.73
2023-08-05T03:58:52.529Z,11.13
2023-08-05T04:01:20.808Z,16.88
2023-08-05T04:03:48.584Z,10.50
2023-08-05T04:06:16.808Z,12.95
2023-08-05T04:08:46.878Z,10.27
2023-08-05T04:11:16.150Z,11.30
2023-08-05T04:13:45.692Z,17.20
2023-08-05T04:16:13.122Z,11.38
2023-08-05T04:18:42.105Z,10.20
2023-08-05T04:21:11.342Z,10.68
2023-08-05T04:23:42.798Z,14.48
2023-08-05T04:26:11.390Z,11.73
2023-08-05T04:28:38.630Z,12.13
2023-08-05T04:31:05.995Z,15.32
2023-08-05T04:33:33.459Z,15.27
2023-08-05T04:36:01.667Z,12.93
2023-08-05T04:38:28.869Z,13.77
2023-08-05T04:40:59.345Z,13.27
2023-08-05T04:43:26.833Z,9.98
2023-08-05T04:45:56.420Z,12.93
2023-08-05T04:48:23.673Z,17.20
2023-08-05T04:50:53.713Z,18.63
2023-08-05T04:53:20.884Z,25.85
2023-08-05T04:55:48.126Z,12.25
2023-08-05T04:58:15.359Z,10.82
2023-08-05T05:00:42.569Z,14.70
2023-08-05T05:03:10.004Z,12.93
2023-08-05T05:05:37.532Z,14.70
2023-08-05T05:08:04.764Z,13.27
2023-08-05T05:10:33.114Z,15.82
2023-08-05T05:13:00.880Z,13.05
2023-08-05T05:15:30.835Z,18.33
2023-08-05T05:17:58.055Z,15.95
2023-08-05T05:20:25.247Z,14.68
2023-08-05T05:22:53.076Z,13.68
2023-08-05T05:25:21.056Z,15.60
2023-08-05T05:27:48.241Z,14.35
2023-08-05T05:30:18.163Z,16.90
2023-08-05T05:32:45.403Z,21.20
2023-08-05T05:35:12.786Z,21.38
2023-08-05T05:37:42.980Z,20.02
2023-08-05T05:40:12.619Z,16.38
2023-08-05T05:42:40.776Z,12.95
2023-08-05T05:45:08.329Z,14.35
2023-08-05T05:47:36.169Z,13.23
2023-08-05T05:50:04.776Z,13.07
2023-08-05T05:52:32.040Z,13.27
2023-08-05T05:54:59.225Z,13.85
2023-08-05T05:57:26.418Z,15.13
2023-08-05T05:59:53.787Z,10.77
2023-08-05T06:02:21.106Z,13.85
2023-08-05T06:04:48.927Z,14.93
2023-08-05T06:07:16.334Z,15.40
2023-08-05T06:09:44.709Z,15.35
2023-08-05T06:12:12.060Z,14.25
2023-08-05T06:14:39.661Z,13.95
2023-08-05T06:17:06.998Z,12.65
2023-08-05T06:19:34.306Z,11.85
2023-08-05T06:22:01.477Z,13.13
2023-08-05T06:24:28.641Z,13.82
2023-08-05T06:26:55.854Z,16.15
2023-08-05T06:29:23.027Z,13.80
2023-08-05T06:31:50.583Z,12.80
2023-08-05T06:34:18.855Z,12.75
2023-08-05T06:36:46.057Z,15.68
2023-08-05T06:39:13.234Z,11.90
2023-08-05T06:41:42.575Z,12.60
2023-08-05T06:44:09.814Z,12.15
2023-08-05T06:46:39.225Z,10.20
2023-08-05T06:49:06.487Z,16.70
2023-08-05T06:51:33.751Z,11.95
2023-08-05T06:54:01.038Z,15.05
2023-08-05T06:56:28.255Z,10.50
2023-08-05T06:58:55.865Z,12.40
2023-08-05T07:01:23.108Z,10.68
2023-08-05T07:03:50.880Z,13.63
2023-08-05T07:06:18.112Z,12.40
2023-08-05T07:08:45.270Z,8.63
2023-08-05T07:11:12.571Z,8.65
2023-08-05T07:13:39.821Z,9.60
2023-08-05T07:16:07.051Z,9.60
2023-08-05T07:18:34.268Z,9.45
2023-08-05T07:21:01.570Z,12.35
2023-08-05T07:23:28.919Z,14.05
2023-08-05T07:25:56.143Z,11.60
2023-08-05T07:28:23.320Z,12.05
2023-08-05T07:30:50.551Z,12.00
2023-08-05T07:33:18.433Z,14.77
2023-08-05T07:35:45.676Z,13.00
2023-08-05T07:38:12.992Z,9.35
2023-08-05T07:40:41.594Z,11.55
2023-08-05T07:43:10.332Z,10.32
2023-08-05T07:45:37.850Z,11.45
2023-08-05T07:48:07.859Z,9.23
2023-08-05T07:50:35.635Z,10.02
2023-08-05T07:53:04.696Z,10.75
2023-08-05T07:55:33.441Z,8.70
2023-08-05T07:58:01.691Z,9.10
2023-08-05T08:00:28.936Z,10.68
2023-08-05T08:02:56.227Z,9.13
2023-08-05T08:05:23.505Z,8.95
2023-08-05T08:07:52.384Z,9.48
2023-08-05T08:10:21.630Z,9.20
2023-08-05T08:12:49.400Z,10.68
2023-08-05T08:15:16.718Z,15.55
2023-08-05T08:17:43.972Z,9.52
2023-08-05T08:20:11.282Z,11.38
2023-08-05T08:22:38.626Z,9.48
2023-08-05T08:25:06.037Z,15.60
2023-08-05T08:27:33.224Z,14.18
2023-08-05T08:30:00.778Z,9.55
2023-08-05T08:32:27.991Z,9.75
2023-08-05T08:34:55.254Z,10.00
2023-08-05T08:37:22.493Z,12.60
2023-08-05T08:39:49.792Z,8.35
2023-08-05T08:42:21.901Z,8.40
2023-08-05T08:44:49.611Z,9.20
2023-08-05T08:47:18.288Z,9.18
2023-08-05T08:49:48.584Z,8.93
2023-08-05T08:52:19.527Z,10.98
2023-08-05T08:54:47.127Z,7.70
2023-08-05T08:57:14.951Z,8.68
2023-08-05T08:59:42.150Z,8.30
2023-08-05T09:02:14.113Z,6.35
2023-08-05T09:04:45.907Z,6.22
2023-08-05T09:07:13.801Z,6.95
2023-08-05T09:09:41.012Z,6.35
2023-08-05T09:12:08.713Z,6.93
2023-08-05T09:14:35.920Z,8.80
2023-08-05T09:17:03.683Z,6.57
2023-08-05T09:19:31.314Z,4.70
2023-08-05T09:22:01.593Z,7.63
2023-08-05T09:24:28.821Z,7.85
2023-08-05T09:26:57.347Z,4.18
2023-08-05T09:29:24.855Z,9.98
2023-08-05T09:31:58.617Z,4.93
2023-08-05T09:34:39.722Z,7.95
2023-08-05T09:37:11.436Z,8.90
2023-08-05T09:39:49.139Z,8.63
2023-08-05T09:42:26.170Z,4.78
2023-08-05T09:44:55.738Z,8.15
2023-08-05T09:47:25.232Z,6.38
2023-08-05T09:49:53.718Z,7.50
2023-08-05T09:52:24.978Z,6.25
2023-08-05T09:54:59.108Z,7.72
2023-08-05T09:57:28.790Z,5.78
2023-08-05T09:59:59.404Z,6.85
2023-08-05T10:02:27.059Z,6.72
2023-08-05T10:04:55.453Z,8.70
2023-08-05T10:07:23.537Z,3.17
2023-08-05T10:09:51.400Z,4.57
2023-08-05T10:12:20.330Z,5.03
2023-08-05T10:14:48.091Z,5.85
2023-08-05T10:17:15.449Z,6.45
2023-08-05T10:19:43.051Z,5.55
2023-08-05T10:22:12.783Z,4.97
2023-08-05T10:24:51.965Z,3.78
2023-08-05T10:27:19.244Z,5.90
2023-08-05T10:29:54.016Z,4.68
2023-08-05T10:32:33.054Z,5.72
2023-08-05T10:35:19.317Z,5.25
2023-08-05T10:37:50.113Z,8.52
2023-08-05T10:40:38.562Z,3.75
2023-08-05T10:43:09.588Z,5.45
2023-08-05T10:45:37.231Z,4.53
2023-08-05T10:48:09.534Z,6.88
2023-08-05T10:50:46.118Z,7.30
2023-08-05T10:53:13.984Z,5.57
2023-08-05T10:55:50.714Z,11.18
2023-08-05T10:58:22.944Z,5.90
2023-08-05T11:01:03.352Z,6.97
2023-08-05T11:03:34.631Z,4.90
2023-08-05T11:06:04.771Z,5.00
2023-08-05T11:08:32.145Z,5.65
2023-08-05T11:11:09.131Z,3.83
2023-08-05T11:13:40.720Z,7.03
2023-08-05T11:16:09.115Z,7.40
2023-08-05T11:18:36.546Z,3.35
2023-08-05T11:21:04.836Z,5.75
2023-08-05T11:23:32.156Z,4.07
2023-08-05T11:26:01.539Z,4.15
2023-08-05T11:28:29.462Z,5.85
2023-08-05T11:30:57.202Z,4.40
2023-08-05T11:33:24.750Z,6.00
2023-08-05T11:35:54.859Z,5.22
2023-08-05T11:38:23.262Z,4.00
2023-08-05T11:40:51.438Z,6.05
2023-08-05T11:43:22.394Z,3.58
2023-08-05T11:45:55.534Z,7.45
2023-08-05T11:48:27.041Z,2.92
2023-08-05T11:51:05.389Z,2.70
2023-08-05T11:53:32.634Z,3.78
2023-08-05T11:55:59.829Z,4.22
2023-08-05T11:58:33.843Z,5.18
2023-08-05T12:01:01.687Z,3.80
2023-08-05T12:03:33.213Z,4.85
2023-08-05T12:06:05.290Z,4.85
2023-08-05T12:08:43.260Z,8.00
2023-08-05T12:11:10.836Z,3.90
2023-08-05T12:13:38.148Z,6.47
2023-08-05T12:16:18.105Z,5.90
2023-08-05T12:18:45.992Z,4.90
2023-08-05T12:21:13.658Z,9.98
2023-08-05T12:23:43.969Z,6.13
2023-08-05T12:26:11.630Z,5.30
2023-08-05T12:28:39.569Z,6.45
2023-08-05T12:31:07.685Z,5.82
2023-08-05T12:33:35.050Z,5.10
2023-08-05T12:36:02.352Z,5.55
2023-08-05T12:38:29.564Z,6.05
2023-08-05T12:40:56.804Z,4.78
2023-08-05T12:43:24.054Z,7.25
2023-08-05T12:45:51.262Z,6.03
2023-08-05T12:48:19.623Z,6.13
2023-08-05T12:50:51.297Z,5.18
2023-08-05T12:53:18.559Z,5.28
2023-08-05T12:55:45.792Z,7.95
2023-08-05T12:58:13.007Z,6.15
2023-08-05T13:00:40.188Z,8.52
2023-08-05T13:03:07.468Z,7.80
2023-08-05T13:05:34.909Z,6.22
2023-08-05T13:08:02.104Z,4.95
2023-08-05T13:10:29.342Z,4.75
2023-08-05T13:12:56.586Z,4.32
2023-08-05T13:15:24.099Z,5.55
2023-08-05T13:17:51.357Z,4.57
2023-08-05T13:20:18.525Z,6.57
2023-08-05T13:22:45.716Z,6.40
2023-08-05T13:25:12.908Z,7.70
2023-08-05T13:27:40.170Z,10.35
2023-08-05T13:30:07.716Z,8.43
2023-08-05T13:32:36.197Z,10.05
2023-08-05T13:35:03.378Z,8.02
2023-08-05T13:37:30.565Z,7.07
2023-08-05T13:39:57.717Z,4.15
2023-08-05T13:42:24.944Z,6.75
2023-08-05T13:44:52.138Z,5.20
2023-08-05T13:47:19.302Z,8.50
2023-08-05T13:49:46.509Z,5.75
2023-08-05T13:52:14.108Z,4.32
2023-08-05T13:54:41.292Z,13.15
2023-08-05T13:57:08.536Z,9.70
2023-08-05T13:59:35.740Z,39.95
2023-08-05T14:02:02.997Z,10.43
2023-08-05T14:04:30.172Z,11.57
2023-08-05T14:06:57.424Z,15.98
2023-08-05T14:09:24.682Z,11.07
2023-08-05T14:11:52.183Z,7.97
2023-08-05T14:14:22.907Z,6.55
2023-08-05T14:16:51.272Z,5.05
2023-08-05T14:19:19.027Z,7.35
2023-08-05T14:21:46.263Z,7.07
2023-08-05T14:24:13.495Z,7.53
2023-08-05T14:26:40.629Z,7.05
2023-08-05T14:29:08.016Z,6.60
2023-08-05T14:31:36.747Z,5.90
2023-08-05T14:34:04.093Z,8.93
2023-08-05T14:36:31.247Z,5.90
2023-08-05T14:38:58.446Z,6.55
2023-08-05T14:41:27.890Z,7.88
2023-08-05T14:43:55.026Z,6.05
2023-08-05T14:46:22.248Z,9.73
2023-08-05T14:48:49.534Z,6.88
2023-08-05T14:51:18.144Z,6.55
2023-08-05T14:53:45.352Z,5.25
2023-08-05T14:56:12.552Z,8.20
2023-08-05T14:58:39.760Z,6.18
2023-08-05T15:01:17.698Z,7.60
2023-08-05T15:03:49.043Z,5.60
2023-08-05T15:06:19.163Z,7.13
2023-08-05T15:08:55.192Z,6.22
2023-08-05T15:11:22.571Z,6.22
2023-08-05T15:13:49.738Z,5.38
2023-08-05T15:16:17.039Z,5.18
2023-08-05T15:18:44.399Z,4.63
2023-08-05T15:21:12.834Z,5.10
2023-08-05T15:23:40.028Z,8.10
2023-08-05T15:26:07.310Z,4.82
2023-08-05T15:28:34.469Z,6.75
2023-08-05T15:31:01.827Z,6.75
2023-08-05T15:33:29.193Z,6.35
2023-08-05T15:35:56.372Z,6.63
2023-08-05T15:38:23.642Z,5.30
2023-08-05T15:40:59.076Z,7.13
2023-08-05T15:43:26.251Z,6.68
2023-08-05T15:45:57.224Z,7.90
2023-08-05T15:48:24.668Z,6.05
2023-08-05T15:50:51.887Z,6.97
2023-08-05T15:53:19.145Z,6.95
2023-08-05T15:55:46.331Z,7.10
2023-08-05T15:58:13.483Z,5.38
2023-08-05T16:00:40.998Z,9.05
2023-08-05T16:03:08.248Z,7.75
2023-08-05T16:05:35.493Z,6.47
2023-08-05T16:08:02.693Z,6.28
2023-08-05T16:10:29.900Z,7.80
2023-08-05T16:12:58.538Z,8.55
2023-08-05T16:15:25.912Z,9.35
2023-08-05T16:17:53.103Z,6.90
2023-08-05T16:20:20.502Z,7.20
2023-08-05T16:22:47.680Z,11.93
2023-08-05T16:25:15.674Z,7.25
2023-08-05T16:27:42.946Z,9.43
2023-08-05T16:30:10.338Z,7.63
2023-08-05T16:32:39.257Z,7.55
2023-08-05T16:35:06.718Z,7.53
2023-08-05T16:37:33.933Z,6.93
2023-08-05T16:40:01.101Z,7.68
2023-08-05T16:42:28.386Z,6.50
2023-08-05T16:44:55.552Z,8.38
2023-08-05T16:47:22.783Z,6.72
2023-08-05T16:49:50.012Z,7.57
2023-08-05T16:52:17.340Z,6.35
2023-08-05T16:54:46.381Z,7.07
2023-08-05T16:57:16.569Z,8.77
2023-08-05T16:59:43.827Z,8.35
2023-08-05T17:02:11.192Z,8.63
2023-08-05T17:04:38.488Z,7.20
2023-08-05T17:07:05.900Z,8.35
2023-08-05T17:09:33.040Z,7.00
2023-08-05T17:12:00.264Z,8.63
2023-08-05T17:28:02.322Z,8.95
2023-08-05T17:30:29.594Z,8.98
2023-08-05T17:32:56.921Z,10.15
2023-08-05T17:35:24.190Z,8.02
2023-08-05T17:37:51.370Z,9.80
2023-08-05T17:40:18.660Z,10.40
2023-08-05T17:42:45.926Z,7.32
2023-08-05T17:45:14.215Z,7.47
2023-08-05T17:47:41.383Z,6.22
2023-08-05T17:50:08.735Z,6.50
2023-08-05T17:52:35.969Z,6.70
2023-08-05T17:55:03.357Z,6.60
2023-08-05T17:57:31.552Z,6.78
2023-08-05T17:59:58.745Z,10.18
2023-08-05T18:02:26.065Z,8.18
2023-08-05T18:04:53.433Z,9.93
2023-08-05T18:07:20.621Z,9.93
2023-08-05T18:09:47.795Z,7.47
2023-08-05T18:12:14.992Z,9.60
2023-08-05T18:14:46.110Z,9.75
2023-08-05T18:17:13.326Z,6.60
2023-08-05T18:19:40.502Z,8.07
2023-08-05T18:22:07.825Z,7.63
2023-08-05T18:24:35.025Z,10.40
2023-08-05T18:27:02.336Z,7.95
2023-08-05T18:29:29.530Z,7.30
2023-08-05T18:31:56.872Z,8.18
2023-08-05T18:34:24.148Z,8.55
2023-08-05T18:36:51.467Z,12.80
2023-08-05T18:39:18.692Z,6.05
2023-08-05T18:41:49.064Z,6.95
2023-08-05T18:44:16.557Z,6.78
2023-08-05T18:46:43.904Z,8.10
2023-08-05T18:49:11.068Z,7.70
2023-08-05T18:51:38.268Z,8.23
2023-08-05T18:54:05.496Z,6.93
2023-08-05T18:56:32.691Z,8.65
2023-08-05T18:58:59.961Z,9.98
2023-08-05T19:01:27.319Z,11.38
2023-08-05T19:03:54.703Z,10.20
2023-08-05T19:06:22.007Z,12.10
2023-08-05T19:08:49.381Z,9.40
2023-08-05T19:11:19.733Z,9.88
2023-08-05T19:13:47.004Z,7.70
2023-08-05T19:16:14.260Z,8.55
2023-08-05T19:18:41.486Z,9.23
2023-08-05T19:21:09.418Z,7.53
2023-08-05T19:23:37.617Z,10.20
2023-08-05T19:26:06.188Z,8.20
2023-08-05T19:28:33.696Z,7.45
2023-08-05T19:31:10.656Z,9.75
2023-08-05T19:33:38.573Z,16.55
2023-08-05T19:36:09.430Z,10.93
2023-08-05T19:38:36.669Z,9.80
2023-08-05T19:41:03.926Z,9.45
2023-08-05T19:43:31.179Z,9.18
2023-08-05T19:46:05.306Z,16.13
2023-08-05T19:48:33.128Z,8.57
2023-08-05T19:51:12.627Z,10.68
2023-08-05T19:53:41.244Z,8.63
2023-08-05T19:56:08.585Z,11.45
2023-08-05T19:58:35.848Z,12.40
2023-08-05T20:01:05.898Z,10.45
2023-08-05T20:03:34.992Z,7.93
2023-08-05T20:06:02.342Z,13.60
2023-08-05T20:08:29.628Z,9.20
2023-08-05T20:10:56.850Z,8.55
2023-08-05T20:13:26.289Z,11.77
2023-08-05T20:15:59.958Z,12.07
2023-08-05T20:18:27.572Z,9.30
2023-08-05T20:20:54.941Z,12.07
2023-08-05T20:23:22.465Z,11.57
2023-08-05T20:25:49.865Z,8.23
2023-08-05T20:28:17.383Z,7.55
2023-08-05T20:30:44.934Z,7.70
2023-08-05T20:33:12.187Z,10.10
2023-08-05T20:35:39.431Z,9.90
2023-08-05T20:38:06.812Z,9.80
2023-08-05T20:40:33.969Z,7.97
2023-08-05T20:43:01.228Z,8.13
2023-08-05T20:45:28.434Z,9.77
2023-08-05T20:47:56.358Z,9.40
2023-08-05T20:50:23.605Z,8.10
2023-08-05T20:52:50.956Z,9.77
2023-08-05T20:55:18.131Z,7.82
2023-08-05T20:57:48.213Z,9.60
2023-08-05T21:00:15.500Z,7.25
2023-08-05T21:02:43.355Z,8.30
2023-08-05T21:05:10.534Z,9.90
2023-08-05T21:07:37.876Z,7.65
2023-08-05T21:10:05.283Z,10.00
2023-08-05T21:12:32.413Z,6.78
2023-08-05T21:14:59.661Z,7.93
2023-08-05T21:17:27.017Z,8.55
2023-08-05T21:19:54.335Z,6.47
2023-08-05T21:22:21.589Z,7.45
2023-08-05T21:24:49.507Z,6.88
2023-08-05T21:27:16.862Z,6.72
2023-08-05T21:29:44.004Z,9.85
2023-08-05T21:32:11.232Z,7.35
2023-08-05T21:34:38.459Z,6.93
2023-08-05T21:37:05.982Z,7.45
2023-08-05T21:39:33.167Z,9.40
2023-08-05T21:42:00.500Z,10.20
2023-08-05T21:44:27.762Z,6.30
2023-08-05T21:46:54.953Z,6.95
2023-08-05T21:49:23.419Z,7.00
2023-08-05T21:51:51.138Z,5.50
2023-08-05T21:54:18.522Z,8.02
2023-08-05T21:56:45.865Z,5.63
2023-08-05T21:59:13.118Z,6.78
2023-08-05T22:01:40.353Z,5.72
2023-08-05T22:04:07.620Z,11.45
2023-08-05T22:06:34.869Z,8.07
2023-08-05T22:09:04.041Z,6.18
2023-08-05T22:11:32.009Z,6.50
2023-08-05T22:13:59.143Z,7.68
2023-08-05T22:16:26.299Z,6.53
2023-08-05T22:18:53.579Z,7.30
2023-08-05T22:21:20.790Z,7.85
2023-08-05T22:23:47.970Z,6.63
2023-08-05T22:26:15.441Z,8.32
2023-08-05T22:28:42.799Z,6.55
2023-08-05T22:31:11.420Z,6.38
2023-08-05T22:33:38.741Z,6.35
2023-08-05T22:36:12.681Z,7.97
2023-08-05T22:38:40.374Z,6.85
2023-08-05T22:41:07.654Z,6.50
2023-08-05T22:43:34.972Z,7.22
2023-08-05T22:46:03.467Z,5.70
2023-08-05T22:48:30.902Z,7.40
2023-08-05T22:50:59.016Z,8.50
2023-08-05T22:53:26.354Z,6.38
2023-08-05T22:55:55.483Z,8.20
2023-08-05T22:58:22.936Z,5.60
2023-08-05T23:00:59.296Z,8.50
2023-08-05T23:03:26.905Z,6.70
2023-08-05T23:05:54.518Z,8.63
2023-08-05T23:08:23.390Z,6.57
2023-08-05T23:10:52.211Z,5.47
2023-08-05T23:13:19.338Z,6.82
2023-08-05T23:15:46.626Z,6.80
2023-08-05T23:18:13.923Z,6.15
2023-08-05T23:20:41.093Z,6.63
2023-08-05T23:23:08.265Z,6.45
2023-08-05T23:25:37.661Z,12.95
2023-08-05T23:28:05.066Z,7.65
2023-08-05T23:30:32.521Z,5.95
2023-08-05T23:32:59.849Z,8.63
2023-08-05T23:35:27.235Z,8.82
2023-08-05T23:37:54.516Z,7.28
2023-08-05T23:40:21.989Z,7.00
2023-08-05T23:42:49.701Z,8.50
2023-08-05T23:45:16.893Z,6.80
2023-08-05T23:47:44.219Z,5.00
2023-08-05T23:50:11.558Z,6.38
2023-08-05T23:52:38.835Z,5.30
2023-08-05T23:55:06.706Z,6.57
2023-08-05T23:57:33.985Z,7.03
